createdAt,value
2023-05-12T00:01:07.992Z,0.60
2023-05-12T00:03:34.694Z,0.50
2023-05-12T00:06:03.679Z,0.55
2023-05-12T00:08:31.428Z,0.50
2023-05-12T00:10:58.015Z,0.60
2023-05-12T00:13:24.712Z,0.38
2023-05-12T00:15:51.933Z,0.60
2023-05-12T00:18:18.514Z,0.50
2023-05-12T00:20:45.069Z,0.50
2023-05-12T00:23:12.268Z,0.50
2023-05-12T00:25:38.873Z,0.50
2023-05-12T00:28:05.869Z,0.38
2023-05-12T00:30:32.399Z,0.63
2023-05-12T00:32:59.005Z,0.50
2023-05-12T00:35:25.708Z,0.40
2023-05-12T00:37:52.742Z,0.30
2023-05-12T00:40:19.720Z,0.75
2023-05-12T00:42:46.430Z,0.38
2023-05-12T00:45:13.119Z,0.40
2023-05-12T00:47:40.067Z,0.40
2023-05-12T00:50:08.426Z,0.50
2023-05-12T00:52:35.399Z,0.50
2023-05-12T00:55:03.615Z,0.50
2023-05-12T00:57:30.252Z,0.43
2023-05-12T00:59:56.845Z,0.70
2023-05-12T01:02:24.070Z,0.80
2023-05-12T01:04:51.600Z,0.50
2023-05-12T01:07:22.745Z,0.38
2023-05-12T01:09:54.402Z,0.50
2023-05-12T01:12:21.491Z,0.40
2023-05-12T01:14:48.403Z,0.43
2023-05-12T01:17:19.608Z,0.38
2023-05-12T01:19:50.498Z,0.40
2023-05-12T01:22:17.970Z,0.40
2023-05-12T01:24:54.400Z,0.35
2023-05-12T01:27:22.173Z,0.57
2023-05-12T01:29:49.915Z,0.38
2023-05-12T01:32:16.894Z,0.50
2023-05-12T01:34:43.707Z,0.60
2023-05-12T01:37:10.845Z,0.52
2023-05-12T01:39:37.958Z,0.63
2023-05-12T01:42:05.752Z,0.40
2023-05-12T01:44:32.442Z,0.40
2023-05-12T01:46:59.263Z,0.40
2023-05-12T01:49:25.797Z,0.55
2023-05-12T01:51:52.504Z,0.50
2023-05-12T01:54:19.367Z,0.40
2023-05-12T01:56:45.944Z,0.60
2023-05-12T01:59:12.519Z,0.63
2023-05-12T02:01:39.127Z,0.50
2023-05-12T02:04:08.037Z,0.63
2023-05-12T02:06:34.779Z,1.17
2023-05-12T02:09:01.426Z,0.93
2023-05-12T02:11:28.151Z,0.68
2023-05-12T02:13:54.682Z,0.60
2023-05-12T02:16:21.341Z,0.82
2023-05-12T02:18:48.179Z,0.80
2023-05-12T02:21:14.766Z,0.73
2023-05-12T02:23:41.393Z,0.90
2023-05-12T02:26:07.957Z,0.85
2023-05-12T02:28:34.524Z,1.17
2023-05-12T02:31:01.029Z,1.33
2023-05-12T02:33:27.595Z,1.05
2023-05-12T02:35:54.104Z,1.10
2023-05-12T02:38:20.686Z,1.40
2023-05-12T02:40:47.897Z,1.20
2023-05-12T02:43:14.415Z,1.45
2023-05-12T02:45:41.507Z,1.58
2023-05-12T02:48:08.302Z,1.60
2023-05-12T02:50:34.925Z,1.92
2023-05-12T02:53:02.268Z,1.75
2023-05-12T02:55:30.683Z,1.38
2023-05-12T02:57:57.550Z,1.42
2023-05-12T03:00:24.120Z,1.38
2023-05-12T03:02:51.069Z,1.63
2023-05-12T03:05:17.881Z,1.50
2023-05-12T03:07:44.565Z,1.73
2023-05-12T03:10:11.236Z,1.25
2023-05-12T03:12:37.838Z,1.60
2023-05-12T03:15:04.832Z,1.52
2023-05-12T03:17:32.025Z,1.30
2023-05-12T03:19:58.678Z,1.20
2023-05-12T03:22:25.265Z,1.70
2023-05-12T03:24:51.997Z,1.40
2023-05-12T03:27:18.831Z,1.50
2023-05-12T03:29:45.947Z,1.13
2023-05-12T03:32:12.990Z,1.48
2023-05-12T03:34:39.697Z,1.00
2023-05-12T03:37:06.242Z,1.10
2023-05-12T03:39:33.522Z,1.20
2023-05-12T03:42:00.198Z,1.75
2023-05-12T03:44:26.722Z,1.02
2023-05-12T03:46:53.337Z,0.88
2023-05-12T03:49:20.034Z,1.63
2023-05-12T03:51:46.606Z,1.00
2023-05-12T03:54:13.130Z,2.33
2023-05-12T03:56:39.678Z,2.00
2023-05-12T03:59:06.447Z,1.52
2023-05-12T04:01:33.089Z,2.35
2023-05-12T04:03:59.638Z,1.63
2023-05-12T04:06:26.147Z,1.92
2023-05-12T04:08:52.704Z,2.15
2023-05-12T04:11:19.236Z,2.15
2023-05-12T04:13:45.852Z,1.80
2023-05-12T04:16:12.469Z,1.85
2023-05-12T04:18:39.021Z,2.15
2023-05-12T04:21:06.192Z,2.88
2023-05-12T04:23:32.825Z,1.90
2023-05-12T04:25:59.341Z,1.77
2023-05-12T04:28:25.955Z,3.10
2023-05-12T04:30:52.478Z,1.88
2023-05-12T04:33:19.123Z,2.33
2023-05-12T04:35:45.645Z,1.85
2023-05-12T04:38:12.319Z,1.92
2023-05-12T04:40:38.901Z,2.42
2023-05-12T04:43:05.423Z,2.13
2023-05-12T04:45:32.320Z,3.15
2023-05-12T04:47:58.885Z,2.28
2023-05-12T04:50:25.416Z,1.90
2023-05-12T04:52:52.317Z,1.50
2023-05-12T04:55:19.103Z,2.20
2023-05-12T04:57:45.750Z,2.65
2023-05-12T05:00:12.824Z,3.00
2023-05-12T05:02:40.401Z,2.25
2023-05-12T05:05:07.513Z,2.55
2023-05-12T05:07:34.031Z,3.00
2023-05-12T05:10:01.166Z,2.30
2023-05-12T05:12:27.739Z,2.20
2023-05-12T05:14:54.298Z,2.65
2023-05-12T05:17:20.960Z,2.60
2023-05-12T05:19:57.271Z,2.53
2023-05-12T05:22:24.798Z,1.88
2023-05-12T05:24:52.048Z,1.92
2023-05-12T05:27:18.913Z,1.83
2023-05-12T05:29:45.787Z,2.47
2023-05-12T05:32:12.551Z,2.10
2023-05-12T05:34:39.254Z,2.83
2023-05-12T05:37:06.043Z,2.13
2023-05-12T05:39:32.551Z,2.08
2023-05-12T05:41:59.311Z,2.53
2023-05-12T05:44:25.828Z,2.45
2023-05-12T05:46:52.381Z,1.95
2023-05-12T05:49:19.166Z,2.65
2023-05-12T05:51:45.910Z,3.13
2023-05-12T05:54:12.890Z,3.00
2023-05-12T05:56:39.503Z,3.10
2023-05-12T05:59:06.390Z,2.78
2023-05-12T06:01:33.092Z,3.50
2023-05-12T06:04:00.015Z,2.65
2023-05-12T06:06:26.938Z,2.05
2023-05-12T06:08:56.003Z,3.28
2023-05-12T06:11:22.807Z,2.63
2023-05-12T06:13:49.843Z,2.40
2023-05-12T06:16:16.425Z,2.80
2023-05-12T06:18:43.447Z,3.35
2023-05-12T06:21:10.172Z,2.80
2023-05-12T06:23:36.689Z,2.80
2023-05-12T06:26:03.420Z,2.65
2023-05-12T06:28:30.192Z,2.70
2023-05-12T06:30:56.792Z,3.03
2023-05-12T06:33:23.379Z,3.67
2023-05-12T06:35:50.038Z,2.78
2023-05-12T06:38:16.561Z,3.35
2023-05-12T06:40:43.170Z,2.47
2023-05-12T06:43:09.887Z,3.20
2023-05-12T06:45:36.848Z,2.47
2023-05-12T06:48:06.033Z,2.15
2023-05-12T06:50:32.750Z,2.63
2023-05-12T06:52:59.279Z,2.28
2023-05-12T06:55:25.977Z,1.80
2023-05-12T06:57:55.778Z,3.53
2023-05-12T07:00:26.546Z,2.08
2023-05-12T07:02:53.317Z,2.40
2023-05-12T07:05:21.215Z,3.13
2023-05-12T07:07:48.068Z,3.33
2023-05-12T07:10:15.003Z,2.65
2023-05-12T07:12:41.592Z,4.82
2023-05-12T07:15:08.606Z,2.53
2023-05-12T07:17:35.311Z,3.10
2023-05-12T07:20:02.418Z,2.70
2023-05-12T07:22:29.659Z,2.30
2023-05-12T07:24:56.212Z,2.50
2023-05-12T07:27:22.764Z,2.00
2023-05-12T07:29:49.255Z,2.40
2023-05-12T07:32:16.060Z,1.80
2023-05-12T07:34:42.619Z,2.47
2023-05-12T07:37:09.177Z,1.90
2023-05-12T07:39:35.749Z,2.05
2023-05-12T07:42:02.350Z,1.98
2023-05-12T07:44:28.944Z,3.17
2023-05-12T07:46:55.510Z,1.92
2023-05-12T07:49:23.405Z,2.70
2023-05-12T07:51:50.342Z,2.90
2023-05-12T07:54:17.123Z,2.35
2023-05-12T07:56:43.776Z,2.50
2023-05-12T07:59:10.933Z,2.40
2023-05-12T08:01:37.535Z,2.13
2023-05-12T08:04:04.379Z,2.13
2023-05-12T08:06:31.189Z,2.10
2023-05-12T08:08:58.462Z,2.05
2023-05-12T08:11:26.153Z,1.88
2023-05-12T08:13:53.082Z,1.83
2023-05-12T08:16:19.776Z,1.63
2023-05-12T08:18:46.414Z,3.17
2023-05-12T08:21:12.997Z,2.38
2023-05-12T08:23:39.578Z,2.00
2023-05-12T08:26:06.268Z,2.75
2023-05-12T08:28:32.960Z,1.83
2023-05-12T08:31:00.920Z,1.45
2023-05-12T08:33:28.762Z,1.48
2023-05-12T08:35:55.387Z,1.73
2023-05-12T08:38:22.355Z,1.50
2023-05-12T08:41:17.867Z,1.55
2023-05-12T08:43:46.442Z,1.83
2023-05-12T08:46:13.504Z,1.50
2023-05-12T08:48:42.000Z,1.88
2023-05-12T08:51:13.841Z,1.77
2023-05-12T08:53:41.987Z,1.48
2023-05-12T08:58:42.820Z,1.45
2023-05-12T09:01:11.876Z,1.58
2023-05-12T09:03:39.096Z,1.00
2023-05-12T09:06:06.740Z,2.13
2023-05-12T09:08:35.085Z,1.45
2023-05-12T09:11:02.773Z,1.77
2023-05-12T09:14:04.303Z,1.70
2023-05-12T09:16:35.804Z,1.75
2023-05-12T09:19:04.589Z,1.50
2023-05-12T09:21:34.165Z,1.58
2023-05-12T09:24:09.173Z,1.33
2023-05-12T09:26:50.037Z,1.65
2023-05-12T09:29:27.777Z,1.25
2023-05-12T09:31:59.601Z,1.45
2023-05-12T09:34:31.028Z,1.60
2023-05-12T09:37:03.604Z,1.17
2023-05-12T09:39:30.160Z,1.10
2023-05-12T09:41:56.977Z,1.48
2023-05-12T09:44:24.940Z,1.30
2023-05-12T09:46:52.802Z,1.52
2023-05-12T09:49:20.452Z,2.00
2023-05-12T09:51:47.481Z,1.48
2023-05-12T09:54:24.655Z,1.55
2023-05-12T09:56:52.832Z,1.38
2023-05-12T09:59:21.298Z,1.45
2023-05-12T10:01:48.602Z,1.13
2023-05-12T10:04:15.631Z,1.60
2023-05-12T10:06:43.166Z,1.25
2023-05-12T10:09:20.656Z,2.17
2023-05-12T10:11:47.626Z,1.90
2023-05-12T10:14:14.467Z,1.60
2023-05-12T10:16:41.597Z,1.40
2023-05-12T10:19:10.510Z,1.85
2023-05-12T10:21:38.573Z,1.80
2023-05-12T10:24:05.515Z,1.58
2023-05-12T10:26:37.596Z,1.42
2023-05-12T10:29:04.222Z,1.60
2023-05-12T10:31:31.184Z,1.27
2023-05-12T10:34:02.691Z,1.30
2023-05-12T10:36:29.757Z,1.10
2023-05-12T10:39:04.319Z,1.75
2023-05-12T10:41:35.466Z,1.27
2023-05-12T10:44:02.108Z,1.23
2023-05-12T10:46:28.839Z,1.00
2023-05-12T10:49:00.694Z,0.93
2023-05-12T10:51:33.230Z,1.02
2023-05-12T10:54:05.305Z,1.63
2023-05-12T10:56:44.287Z,1.05
2023-05-12T10:59:23.036Z,1.35
2023-05-12T11:02:13.655Z,1.33
2023-05-12T11:04:58.280Z,1.05
2023-05-12T11:07:27.776Z,2.10
2023-05-12T11:09:58.906Z,1.33
2023-05-12T11:12:32.582Z,1.50
2023-05-12T11:15:01.420Z,1.35
2023-05-12T11:17:28.181Z,1.50
2023-05-12T11:19:55.908Z,0.85
2023-05-12T11:22:24.174Z,0.95
2023-05-12T11:24:52.837Z,0.85
2023-05-12T11:27:21.318Z,0.90
2023-05-12T11:30:01.812Z,0.75
2023-05-12T11:32:30.425Z,0.70
2023-05-12T11:35:18.545Z,1.13
2023-05-12T11:37:46.145Z,0.90
2023-05-12T11:40:22.547Z,0.95
2023-05-12T11:42:52.236Z,0.90
2023-05-12T11:45:27.299Z,0.70
2023-05-12T11:48:05.003Z,0.93
2023-05-12T11:50:31.752Z,0.68
2023-05-12T11:52:58.340Z,0.80
2023-05-12T11:55:25.451Z,0.88
2023-05-12T11:57:58.629Z,1.40
2023-05-12T12:00:30.271Z,1.33
2023-05-12T12:03:26.516Z,0.80
2023-05-12T12:06:03.692Z,0.90
2023-05-12T12:08:30.993Z,1.17
2023-05-12T12:10:57.849Z,0.73
2023-05-12T12:13:26.449Z,0.57
2023-05-12T12:15:53.173Z,0.70
2023-05-12T12:18:19.767Z,0.80
2023-05-12T12:20:49.218Z,0.40
2023-05-12T12:23:15.749Z,0.80
2023-05-12T12:25:43.547Z,0.88
2023-05-12T12:28:10.188Z,0.85
2023-05-12T12:30:36.845Z,0.63
2023-05-12T12:33:03.495Z,0.88
2023-05-12T12:35:30.067Z,0.90
2023-05-12T12:37:56.894Z,0.52
2023-05-12T12:40:23.467Z,1.27
2023-05-12T12:42:50.041Z,0.70
2023-05-12T12:45:19.359Z,0.80
2023-05-12T12:47:46.889Z,0.70
2023-05-12T12:50:13.745Z,0.60
2023-05-12T12:52:40.285Z,0.95
2023-05-12T12:55:07.557Z,1.00
2023-05-12T12:57:34.885Z,1.25
2023-05-12T13:00:01.417Z,0.65
2023-05-12T13:02:28.245Z,0.93
2023-05-12T13:04:54.949Z,0.65
2023-05-12T13:07:21.967Z,0.70
2023-05-12T13:09:48.518Z,0.80
2023-05-12T13:12:15.098Z,0.82
2023-05-12T13:14:41.687Z,0.70
2023-05-12T13:17:08.340Z,0.52
2023-05-12T13:19:37.745Z,0.40
2023-05-12T13:22:04.985Z,1.10
2023-05-12T13:24:31.634Z,1.05
2023-05-12T13:26:58.293Z,1.15
2023-05-12T13:29:24.890Z,0.88
2023-05-12T13:31:51.422Z,0.50
2023-05-12T13:34:17.984Z,0.80
2023-05-12T13:36:44.597Z,0.65
2023-05-12T13:39:11.440Z,1.02
2023-05-12T13:41:38.058Z,0.73
2023-05-12T13:44:04.754Z,0.82
2023-05-12T13:46:31.352Z,0.45
2023-05-12T13:48:58.176Z,0.80
2023-05-12T13:51:25.878Z,0.65
2023-05-12T13:53:52.780Z,1.10
2023-05-12T13:56:19.966Z,0.70
2023-05-12T13:58:46.896Z,1.10
2023-05-12T14:01:13.533Z,0.75
2023-05-12T14:03:40.468Z,0.95
2023-05-12T14:06:07.064Z,0.80
2023-05-12T14:08:33.568Z,1.00
2023-05-12T14:11:00.172Z,1.02
2023-05-12T14:13:27.629Z,0.80
2023-05-12T14:15:54.423Z,1.23
2023-05-12T14:18:21.236Z,0.68
2023-05-12T14:20:48.021Z,0.60
2023-05-12T14:23:14.640Z,1.08
2023-05-12T14:25:41.207Z,0.90
2023-05-12T14:28:08.124Z,0.68
2023-05-12T14:30:35.330Z,1.17
2023-05-12T14:33:02.610Z,0.93
2023-05-12T14:35:29.598Z,0.68
2023-05-12T14:37:57.007Z,0.73
2023-05-12T14:40:23.915Z,0.68
2023-05-12T14:42:50.577Z,0.30
2023-05-12T14:45:17.303Z,0.30
2023-05-12T14:47:43.975Z,0.47
2023-05-12T14:50:11.095Z,0.35
2023-05-12T14:52:40.198Z,0.68
2023-05-12T14:55:13.899Z,0.40
2023-05-12T14:57:44.309Z,0.30
2023-05-12T15:00:12.807Z,0.55
2023-05-12T15:02:40.504Z,0.30
2023-05-12T15:05:08.724Z,0.47
2023-05-12T15:07:35.825Z,0.43
2023-05-12T15:10:03.005Z,0.20
2023-05-12T15:12:29.784Z,0.22
2023-05-12T15:14:56.681Z,0.30
2023-05-12T15:17:23.475Z,0.30
2023-05-12T15:19:50.304Z,0.30
2023-05-12T15:22:16.800Z,0.50
2023-05-12T15:24:43.368Z,0.40
2023-05-12T15:27:09.921Z,0.80
2023-05-12T15:29:40.736Z,0.98
2023-05-12T15:32:07.841Z,0.75
2023-05-12T15:34:35.534Z,0.70
2023-05-12T15:37:02.063Z,0.80
2023-05-12T15:39:28.605Z,0.68
2023-05-12T15:41:55.183Z,0.38
2023-05-12T15:44:21.784Z,0.60
2023-05-12T15:46:48.449Z,1.02
2023-05-12T15:49:15.010Z,0.40
2023-05-12T15:51:41.692Z,0.60
2023-05-12T15:54:09.520Z,0.50
2023-05-12T15:56:36.627Z,0.60
2023-05-12T15:59:05.171Z,0.60
2023-05-12T16:01:32.090Z,0.70
2023-05-12T16:03:59.262Z,0.70
2023-05-12T16:06:26.116Z,0.50
2023-05-12T16:08:53.294Z,0.60
2023-05-12T16:11:20.054Z,0.60
2023-05-12T16:13:46.788Z,1.05
2023-05-12T16:16:13.384Z,0.47
2023-05-12T16:18:40.276Z,0.70
2023-05-12T16:21:07.198Z,0.60
2023-05-12T16:23:33.736Z,0.45
2023-05-12T16:26:00.404Z,0.60
2023-05-12T16:28:27.439Z,0.52
2023-05-12T16:30:53.938Z,0.47
2023-05-12T16:33:20.508Z,0.70
2023-05-12T16:35:47.098Z,1.67
2023-05-12T16:38:13.737Z,0.75
2023-05-12T16:40:40.299Z,0.90
2023-05-12T16:43:06.844Z,1.48
2023-05-12T16:45:33.572Z,0.63
2023-05-12T16:48:00.416Z,0.85
2023-05-12T16:50:26.973Z,1.00
2023-05-12T16:52:53.745Z,0.90
2023-05-12T16:55:20.861Z,1.23
2023-05-12T16:57:47.617Z,0.73
2023-05-12T17:00:14.890Z,1.20
2023-05-12T17:02:41.667Z,1.50
2023-05-12T17:05:08.451Z,1.10
2023-05-12T17:07:37.939Z,1.00
2023-05-12T17:10:04.969Z,0.85
2023-05-12T17:12:32.194Z,0.82
2023-05-12T17:15:07.060Z,0.52
2023-05-12T17:17:35.258Z,1.20
2023-05-12T17:20:02.597Z,0.90
2023-05-12T17:22:29.690Z,0.80
2023-05-12T17:24:56.738Z,1.02
2023-05-12T17:27:23.469Z,0.95
2023-05-12T17:29:50.055Z,0.88
2023-05-12T17:32:17.087Z,0.98
2023-05-12T17:34:43.623Z,0.90
2023-05-12T17:37:10.189Z,0.60
2023-05-12T17:39:40.416Z,0.68
2023-05-12T17:42:07.349Z,0.60
2023-05-12T17:44:33.886Z,0.90
2023-05-12T17:47:00.727Z,0.65
2023-05-12T17:49:27.349Z,1.00
2023-05-12T17:51:54.969Z,0.90
2023-05-12T17:54:21.714Z,0.60
2023-05-12T17:56:48.808Z,0.95
2023-05-12T17:59:15.408Z,0.85
2023-05-12T18:01:42.004Z,0.60
2023-05-12T18:04:08.591Z,0.80
2023-05-12T18:06:35.557Z,1.13
2023-05-12T18:09:03.348Z,0.90
2023-05-12T18:11:29.938Z,0.93
2023-05-12T18:13:56.642Z,0.40
2023-05-12T18:16:29.151Z,0.57
2023-05-12T18:18:56.319Z,0.63
2023-05-12T18:21:22.909Z,0.52
2023-05-12T18:23:49.472Z,0.52
2023-05-12T18:26:16.040Z,0.60
2023-05-12T18:28:42.620Z,0.50
2023-05-12T18:31:15.967Z,0.47
2023-05-12T18:33:46.892Z,0.40
2023-05-12T18:36:13.544Z,0.85
2023-05-12T18:38:40.155Z,1.13
2023-05-12T18:41:07.464Z,0.73
2023-05-12T18:43:37.062Z,0.50
2023-05-12T18:46:04.478Z,0.70
2023-05-12T18:48:31.220Z,0.57
2023-05-12T18:50:58.147Z,0.45
2023-05-12T18:53:24.813Z,0.70
2023-05-12T18:55:51.654Z,0.65
2023-05-12T18:58:18.249Z,1.00
2023-05-12T19:00:45.379Z,0.35
2023-05-12T19:03:11.964Z,0.60
2023-05-12T19:05:43.216Z,0.32
2023-05-12T19:08:10.843Z,0.30
2023-05-12T19:10:39.983Z,0.20
2023-05-12T19:13:07.133Z,0.40
2023-05-12T19:15:33.800Z,0.50
2023-05-12T19:18:00.477Z,1.70
2023-05-12T19:20:28.182Z,1.65
2023-05-12T19:22:54.973Z,1.20
2023-05-12T19:25:22.003Z,1.10
2023-05-12T19:27:48.820Z,1.63
2023-05-12T19:30:15.534Z,1.65
2023-05-12T19:32:42.739Z,1.27
2023-05-12T19:35:11.055Z,0.82
2023-05-12T19:37:38.434Z,1.25
2023-05-12T19:40:05.606Z,2.22
2023-05-12T19:42:32.710Z,2.88
2023-05-12T19:45:00.560Z,1.45
2023-05-12T19:47:27.252Z,2.22
2023-05-12T19:49:54.348Z,1.90
2023-05-12T19:52:22.027Z,1.98
2023-05-12T19:54:48.602Z,1.98
2023-05-12T19:57:15.150Z,2.85
2023-05-12T19:59:41.669Z,4.30
2023-05-12T20:02:12.874Z,4.20
2023-05-12T20:04:40.151Z,4.15
2023-05-12T20:07:06.694Z,3.17
2023-05-12T20:09:33.233Z,2.40
2023-05-12T20:11:59.768Z,3.10
2023-05-12T20:14:26.439Z,3.15
2023-05-12T20:16:53.113Z,3.25
2023-05-12T20:19:19.640Z,3.38
2023-05-12T20:21:46.379Z,3.67
2023-05-12T20:24:12.960Z,3.65
2023-05-12T20:26:39.504Z,3.28
2023-05-12T20:29:06.106Z,3.60
2023-05-12T20:31:32.751Z,2.88
2023-05-12T20:33:59.303Z,2.45
2023-05-12T20:36:25.958Z,2.72
2023-05-12T20:38:52.543Z,2.72
2023-05-12T20:41:19.487Z,3.05
2023-05-12T20:43:46.069Z,3.92
2023-05-12T20:46:13.506Z,2.85
2023-05-12T20:48:40.072Z,3.40
2023-05-12T20:51:11.538Z,2.92
2023-05-12T20:53:38.200Z,3.30
2023-05-12T20:56:04.893Z,2.72
2023-05-12T20:58:31.444Z,2.55
2023-05-12T21:00:59.076Z,2.53
2023-05-12T21:03:26.683Z,2.17
2023-05-12T21:05:53.228Z,2.80
2023-05-12T21:08:19.774Z,2.20
2023-05-12T21:10:47.036Z,1.92
2023-05-12T21:13:14.728Z,2.45
2023-05-12T21:15:41.306Z,2.95
2023-05-12T21:18:09.017Z,2.20
2023-05-12T21:20:35.702Z,2.05
2023-05-12T21:23:02.414Z,1.73
2023-05-12T21:25:29.077Z,2.08
2023-05-12T21:27:55.887Z,2.15
2023-05-12T21:30:22.837Z,2.00
2023-05-12T21:32:49.719Z,2.65
2023-05-12T21:35:16.825Z,2.67
2023-05-12T21:37:43.477Z,2.45
2023-05-12T21:40:10.308Z,2.58
2023-05-12T21:42:36.997Z,2.60
2023-05-12T21:45:03.866Z,2.00
2023-05-12T21:47:30.423Z,1.98
2023-05-12T21:49:57.031Z,1.65
2023-05-12T21:52:23.743Z,2.22
2023-05-12T21:54:50.307Z,1.90
2023-05-12T21:57:17.655Z,2.85
2023-05-12T21:59:44.563Z,1.40
2023-05-12T22:02:11.370Z,1.92
2023-05-12T22:04:37.991Z,1.83
2023-05-12T22:07:04.762Z,1.75
2023-05-12T22:09:31.528Z,1.33
2023-05-12T22:11:58.084Z,1.73
2023-05-12T22:14:24.859Z,1.70
2023-05-12T22:16:51.480Z,1.48
2023-05-12T22:19:18.863Z,1.60
2023-05-12T22:21:45.736Z,1.50
2023-05-12T22:24:12.324Z,2.00
2023-05-12T22:26:38.902Z,1.35
2023-05-12T22:29:05.456Z,1.20
2023-05-12T22:31:32.106Z,1.42
2023-05-12T22:33:58.665Z,1.83
2023-05-12T22:36:25.365Z,1.63
2023-05-12T22:38:51.939Z,1.50
2023-05-12T22:41:19.553Z,1.70
2023-05-12T22:43:46.260Z,1.73
2023-05-12T22:46:12.829Z,1.70
2023-05-12T22:48:39.793Z,1.75
2023-05-12T22:51:06.691Z,1.88
2023-05-12T22:53:35.873Z,2.45
2023-05-12T22:56:03.360Z,2.38
2023-05-12T22:58:30.076Z,2.40
2023-05-12T23:00:56.750Z,1.85
2023-05-12T23:03:23.364Z,1.95
2023-05-12T23:05:50.270Z,2.72
2023-05-12T23:08:16.837Z,2.47
2023-05-12T23:10:43.349Z,2.22
2023-05-12T23:13:09.894Z,1.77
2023-05-12T23:15:36.484Z,2.33
2023-05-12T23:18:03.087Z,2.08
2023-05-12T23:20:29.693Z,2.63
2023-05-12T23:22:56.431Z,1.95
2023-05-12T23:25:23.337Z,1.92
2023-05-12T23:27:49.917Z,1.80
2023-05-12T23:30:16.700Z,2.15
2023-05-12T23:32:43.327Z,2.05
2023-05-12T23:35:10.089Z,2.13
2023-05-12T23:37:36.660Z,2.38
2023-05-12T23:40:04.088Z,2.47
2023-05-12T23:42:30.700Z,1.98
2023-05-12T23:44:57.278Z,2.47
2023-05-12T23:47:23.891Z,2.40
2023-05-12T23:49:51.671Z,2.10
2023-05-12T23:52:18.262Z,2.20
2023-05-12T23:54:44.797Z,2.30
2023-05-12T23:57:11.364Z,2.03
2023-05-12T23:59:37.890Z,2.78
